sensor_id;sensor_type;location;lat;lon;timestamp;pressure;altitude;pressure_sealevel;temperature;humidity
39491;BME280;25175;50.140;18.990;2023-09-18T00:07:45;98652.25;;;17.76;62.91
39491;BME280;25175;50.140;18.990;2023-09-18T00:54:05;98629.53;;;17.37;62.96
39491;BME280;25175;50.140;18.990;2023-09-18T01:13:13;98620.63;;;17.26;62.59
39491;BME280;25175;50.140;18.990;2023-09-18T01:20:50;98618.72;;;17.22;62.77
39491;BME280;25175;50.140;18.990;2023-09-18T01:28:14;98633.44;;;17.13;62.57
39491;BME280;25175;50.140;18.990;2023-09-18T01:32:07;98629.13;;;17.07;62.61
39491;BME280;25175;50.140;18.990;2023-09-18T01:35:24;98627.75;;;17.04;62.89
39491;BME280;25175;50.140;18.990;2023-09-18T01:38:47;98620.34;;;17.06;62.86
39491;BME280;25175;50.140;18.990;2023-09-18T01:42:16;98621.41;;;17.05;62.76
39491;BME280;25175;50.140;18.990;2023-09-18T01:54:27;98620.41;;;16.90;62.68
39491;BME280;25175;50.140;18.990;2023-09-18T02:01:17;98620.03;;;16.81;63.18
39491;BME280;25175;50.140;18.990;2023-09-18T02:05:03;98626.38;;;16.80;63.37
39491;BME280;25175;50.140;18.990;2023-09-18T02:08:15;98618.13;;;16.77;63.33
39491;BME280;25175;50.140;18.990;2023-09-18T02:11:30;98610.09;;;16.72;63.47
39491;BME280;25175;50.140;18.990;2023-09-18T02:15:16;98618.75;;;16.67;63.42
39491;BME280;25175;50.140;18.990;2023-09-18T02:18:25;98623.75;;;16.64;63.58
39491;BME280;25175;50.140;18.990;2023-09-18T02:26:03;98610.13;;;16.55;63.48
39491;BME280;25175;50.140;18.990;2023-09-18T02:29:49;98610.63;;;16.52;63.55
39491;BME280;25175;50.140;18.990;2023-09-18T02:41:48;98602.94;;;16.39;63.36
39491;BME280;25175;50.140;18.990;2023-09-18T02:45:50;98602.63;;;16.36;63.34
39491;BME280;25175;50.140;18.990;2023-09-18T02:49:09;98600.16;;;16.13;63.94
39491;BME280;25175;50.140;18.990;2023-09-18T02:52:30;98602.00;;;16.29;63.63
39491;BME280;25175;50.140;18.990;2023-09-18T02:55:40;98598.53;;;16.28;63.88
39491;BME280;25175;50.140;18.990;2023-09-18T03:06:22;98593.03;;;16.13;63.85
39491;BME280;25175;50.140;18.990;2023-09-18T03:09:34;98594.53;;;16.09;64.10
39491;BME280;25175;50.140;18.990;2023-09-18T03:12:50;98583.97;;;16.09;63.86
39491;BME280;25175;50.140;18.990;2023-09-18T03:15:59;98576.66;;;16.00;64.51
39491;BME280;25175;50.140;18.990;2023-09-18T03:19:30;98587.47;;;15.98;64.69
39491;BME280;25175;50.140;18.990;2023-09-18T03:22:48;98580.09;;;16.00;64.14
39491;BME280;25175;50.140;18.990;2023-09-18T03:30:33;98582.00;;;15.88;64.45
39491;BME280;25175;50.140;18.990;2023-09-18T03:34:02;98580.97;;;15.89;64.29
39491;BME280;25175;50.140;18.990;2023-09-18T03:37:08;98578.63;;;15.93;63.87
39491;BME280;25175;50.140;18.990;2023-09-18T03:40:15;98576.50;;;15.90;63.93
39491;BME280;25175;50.140;18.990;2023-09-18T03:43:42;98575.44;;;15.91;63.80
39491;BME280;25175;50.140;18.990;2023-09-18T03:47:33;98567.50;;;15.91;63.42
39491;BME280;25175;50.140;18.990;2023-09-18T03:58:56;98557.22;;;15.78;63.54
39491;BME280;25175;50.140;18.990;2023-09-18T04:06:36;98564.19;;;15.68;64.25
39491;BME280;25175;50.140;18.990;2023-09-18T04:10:05;98547.41;;;15.62;64.16
39491;BME280;25175;50.140;18.990;2023-09-18T04:13:16;98560.94;;;15.65;64.09
39491;BME280;25175;50.140;18.990;2023-09-18T04:16:33;98559.09;;;15.66;63.97
39491;BME280;25175;50.140;18.990;2023-09-18T04:20:06;98556.94;;;15.63;63.84
39491;BME280;25175;50.140;18.990;2023-09-18T04:27:07;98550.50;;;15.59;64.37
39491;BME280;25175;50.140;18.990;2023-09-18T04:34:43;98544.47;;;15.47;64.26
39491;BME280;25175;50.140;18.990;2023-09-18T04:42:09;98550.31;;;14.93;64.37
39491;BME280;25175;50.140;18.990;2023-09-18T04:45:40;98538.47;;;15.51;64.22
39491;BME280;25175;50.140;18.990;2023-09-18T04:52:33;98526.94;;;15.57;64.48
39491;BME280;25175;50.140;18.990;2023-09-18T04:59:19;98533.38;;;15.61;64.75
39491;BME280;25175;50.140;18.990;2023-09-18T05:02:29;98534.19;;;15.62;64.93
39491;BME280;25175;50.140;18.990;2023-09-18T05:05:37;98531.28;;;15.63;65.21
39491;BME280;25175;50.140;18.990;2023-09-18T05:17:20;98537.81;;;15.73;66.17
39491;BME280;25175;50.140;18.990;2023-09-18T05:25:38;98533.09;;;15.75;66.71
39491;BME280;25175;50.140;18.990;2023-09-18T05:28:49;98529.59;;;15.86;66.92
39491;BME280;25175;50.140;18.990;2023-09-18T05:32:04;98521.38;;;15.87;67.27
39491;BME280;25175;50.140;18.990;2023-09-18T05:36:19;98524.09;;;15.92;67.41
39491;BME280;25175;50.140;18.990;2023-09-18T05:44:23;98517.16;;;16.02;67.83
39491;BME280;25175;50.140;18.990;2023-09-18T05:47:30;98511.13;;;16.07;68.03
39491;BME280;25175;50.140;18.990;2023-09-18T05:55:31;98520.81;;;16.18;67.77
39491;BME280;25175;50.140;18.990;2023-09-18T05:58:43;98491.53;;;16.24;67.89
39491;BME280;25175;50.140;18.990;2023-09-18T06:01:50;98219.38;;;14.53;67.91
39491;BME280;25175;50.140;18.990;2023-09-18T06:05:17;98496.22;;;16.39;68.01
39491;BME280;25175;50.140;18.990;2023-09-18T06:09:07;98493.94;;;16.47;67.91
39491;BME280;25175;50.140;18.990;2023-09-18T06:16:51;98487.53;;;16.60;67.97
39491;BME280;25175;50.140;18.990;2023-09-18T06:20:11;98484.44;;;16.68;67.64
39491;BME280;25175;50.140;18.990;2023-09-18T06:23:53;98476.84;;;16.76;67.52
39491;BME280;25175;50.140;18.990;2023-09-18T06:31:00;98466.38;;;16.86;67.21
39491;BME280;25175;50.140;18.990;2023-09-18T06:34:13;98481.38;;;17.02;67.27
39491;BME280;25175;50.140;18.990;2023-09-18T06:41:13;98467.13;;;17.08;67.53
39491;BME280;25175;50.140;18.990;2023-09-18T06:44:28;98479.59;;;17.29;67.49
39491;BME280;25175;50.140;18.990;2023-09-18T06:47:49;98470.66;;;17.40;67.25
39491;BME280;25175;50.140;18.990;2023-09-18T06:51:24;98471.28;;;17.52;66.86
39491;BME280;25175;50.140;18.990;2023-09-18T06:54:45;98490.75;;;17.63;66.78
39491;BME280;25175;50.140;18.990;2023-09-18T06:57:51;98472.53;;;17.76;66.63
39491;BME280;25175;50.140;18.990;2023-09-18T07:00:59;98474.78;;;17.89;66.96
39491;BME280;25175;50.140;18.990;2023-09-18T07:04:13;98477.81;;;18.03;65.96
39491;BME280;25175;50.140;18.990;2023-09-18T07:07:30;98467.81;;;18.15;65.80
39491;BME280;25175;50.140;18.990;2023-09-18T07:10:40;98466.00;;;18.25;65.66
39491;BME280;25175;50.140;18.990;2023-09-18T07:14:20;98476.97;;;18.39;65.43
39491;BME280;25175;50.140;18.990;2023-09-18T07:17:38;98475.16;;;18.49;64.52
39491;BME280;25175;50.140;18.990;2023-09-18T07:21:12;98477.09;;;18.64;64.82
39491;BME280;25175;50.140;18.990;2023-09-18T07:25:20;98472.66;;;18.79;64.25
39491;BME280;25175;50.140;18.990;2023-09-18T07:28:54;98465.25;;;18.96;63.71
39491;BME280;25175;50.140;18.990;2023-09-18T07:36:00;98466.38;;;19.25;63.23
39491;BME280;25175;50.140;18.990;2023-09-18T07:39:11;98452.84;;;19.37;62.88
39491;BME280;25175;50.140;18.990;2023-09-18T07:42:29;98447.81;;;19.50;62.19
39491;BME280;25175;50.140;18.990;2023-09-18T07:45:38;98453.13;;;19.70;61.86
39491;BME280;25175;50.140;18.990;2023-09-18T07:48:47;98446.19;;;19.84;62.16
39491;BME280;25175;50.140;18.990;2023-09-18T07:51:54;98447.50;;;20.02;62.54
39491;BME280;25175;50.140;18.990;2023-09-18T07:55:06;98435.22;;;20.21;61.45
39491;BME280;25175;50.140;18.990;2023-09-18T07:58:42;98430.94;;;20.35;60.38
39491;BME280;25175;50.140;18.990;2023-09-18T08:02:39;98434.84;;;20.52;59.81
39491;BME280;25175;50.140;18.990;2023-09-18T08:05:57;98437.19;;;20.69;59.11
39491;BME280;25175;50.140;18.990;2023-09-18T08:09:36;98430.47;;;20.86;59.05
39491;BME280;25175;50.140;18.990;2023-09-18T08:12:48;98421.03;;;20.99;59.74
39491;BME280;25175;50.140;18.990;2023-09-18T08:16:00;98433.97;;;21.20;59.70
39491;BME280;25175;50.140;18.990;2023-09-18T08:19:14;98433.34;;;21.33;58.48
39491;BME280;25175;50.140;18.990;2023-09-18T08:26:48;98437.38;;;21.69;56.92
39491;BME280;25175;50.140;18.990;2023-09-18T08:30:18;98394.94;;;21.63;56.90
39491;BME280;25175;50.140;18.990;2023-09-18T08:33:43;98423.22;;;21.97;57.20
39491;BME280;25175;50.140;18.990;2023-09-18T08:37:13;98412.91;;;22.14;57.33
39491;BME280;25175;50.140;18.990;2023-09-18T08:41:18;98419.09;;;22.33;56.57
39491;BME280;25175;50.140;18.990;2023-09-18T08:44:49;98423.44;;;22.48;56.00
39491;BME280;25175;50.140;18.990;2023-09-18T08:48:00;98417.41;;;22.61;55.64
39491;BME280;25175;50.140;18.990;2023-09-18T08:51:28;98397.09;;;22.60;54.90
39491;BME280;25175;50.140;18.990;2023-09-18T08:54:54;98362.56;;;22.63;55.08
39491;BME280;25175;50.140;18.990;2023-09-18T08:58:09;98398.28;;;23.09;54.80
39491;BME280;25175;50.140;18.990;2023-09-18T09:01:20;98402.63;;;23.24;54.11
39491;BME280;25175;50.140;18.990;2023-09-18T09:08:43;98387.41;;;23.56;52.74
39491;BME280;25175;50.140;18.990;2023-09-18T09:11:49;98381.25;;;23.69;52.40
39491;BME280;25175;50.140;18.990;2023-09-18T09:15:47;98380.66;;;23.86;52.00
39491;BME280;25175;50.140;18.990;2023-09-18T09:20:09;98369.00;;;23.95;51.08
39491;BME280;25175;50.140;18.990;2023-09-18T09:23:49;98357.69;;;23.98;51.53
39491;BME280;25175;50.140;18.990;2023-09-18T09:27:08;98368.59;;;24.29;50.21
39491;BME280;25175;50.140;18.990;2023-09-18T09:30:22;98365.22;;;24.37;48.86
39491;BME280;25175;50.140;18.990;2023-09-18T09:33:51;98365.00;;;24.47;48.29
39491;BME280;25175;50.140;18.990;2023-09-18T09:38:09;98357.28;;;24.59;46.59
39491;BME280;25175;50.140;18.990;2023-09-18T09:54:03;98345.56;;;25.12;43.21
39491;BME280;25175;50.140;18.990;2023-09-18T10:01:02;98350.03;;;25.39;43.95
39491;BME280;25175;50.140;18.990;2023-09-18T10:04:17;98345.19;;;25.49;42.94
39491;BME280;25175;50.140;18.990;2023-09-18T10:08:41;98359.41;;;25.72;43.61
39491;BME280;25175;50.140;18.990;2023-09-18T10:12:58;98341.00;;;25.87;42.46
39491;BME280;25175;50.140;18.990;2023-09-18T10:21:20;98337.88;;;26.11;42.43
39491;BME280;25175;50.140;18.990;2023-09-18T10:29:03;98328.97;;;26.32;40.56
39491;BME280;25175;50.140;18.990;2023-09-18T10:32:55;98328.63;;;26.34;40.79
39491;BME280;25175;50.140;18.990;2023-09-18T10:40:05;98316.28;;;26.33;40.41
39491;BME280;25175;50.140;18.990;2023-09-18T10:43:51;98321.38;;;26.43;40.48
39491;BME280;25175;50.140;18.990;2023-09-18T10:51:40;98304.63;;;26.54;39.72
39491;BME280;25175;50.140;18.990;2023-09-18T10:59:24;98305.22;;;26.68;40.51
39491;BME280;25175;50.140;18.990;2023-09-18T11:07:03;98301.44;;;26.69;37.50
39491;BME280;25175;50.140;18.990;2023-09-18T11:18:54;98294.97;;;26.70;38.33
39491;BME280;25175;50.140;18.990;2023-09-18T11:26:42;98270.38;;;26.63;37.75
39491;BME280;25175;50.140;18.990;2023-09-18T11:30:03;98278.47;;;26.72;36.82
39491;BME280;25175;50.140;18.990;2023-09-18T11:34:29;98280.38;;;26.71;37.17
39491;BME280;25175;50.140;18.990;2023-09-18T11:38:02;98276.56;;;26.72;37.83
39491;BME280;25175;50.140;18.990;2023-09-18T11:41:38;98277.03;;;26.74;37.51
39491;BME280;25175;50.140;18.990;2023-09-18T11:49:11;98258.69;;;26.68;37.43
39491;BME280;25175;50.140;18.990;2023-09-18T11:56:10;98246.66;;;26.57;37.39
39491;BME280;25175;50.140;18.990;2023-09-18T12:00:21;98253.91;;;26.73;37.05
39491;BME280;25175;50.140;18.990;2023-09-18T12:04:42;98240.59;;;26.77;36.92
39491;BME280;25175;50.140;18.990;2023-09-18T12:10:28;98245.22;;;26.76;36.68
39491;BME280;25175;50.140;18.990;2023-09-18T12:12:44;98232.72;;;26.80;37.17
39491;BME280;25175;50.140;18.990;2023-09-18T12:16:11;98235.09;;;26.82;36.52
39491;BME280;25175;50.140;18.990;2023-09-18T12:24:14;98213.22;;;26.83;36.41
39491;BME280;25175;50.140;18.990;2023-09-18T12:28:07;97982.75;;;25.39;36.56
39491;BME280;25175;50.140;18.990;2023-09-18T12:40:26;98207.66;;;26.97;35.77
39491;BME280;25175;50.140;18.990;2023-09-18T12:43:58;98204.81;;;26.93;35.14
39491;BME280;25175;50.140;18.990;2023-09-18T12:47:09;98188.03;;;26.88;36.49
39491;BME280;25175;50.140;18.990;2023-09-18T12:59:47;98209.44;;;26.84;36.08
39491;BME280;25175;50.140;18.990;2023-09-18T13:03:00;98198.63;;;26.93;35.62
39491;BME280;25175;50.140;18.990;2023-09-18T13:06:39;98195.16;;;26.92;35.92
39491;BME280;25175;50.140;18.990;2023-09-18T13:09:58;98201.00;;;26.94;36.13
39491;BME280;25175;50.140;18.990;2023-09-18T13:13:26;98148.78;;;26.70;36.58
39491;BME280;25175;50.140;18.990;2023-09-18T13:16:37;98195.91;;;27.01;35.89
39491;BME280;25175;50.140;18.990;2023-09-18T13:19:47;98185.63;;;27.03;36.32
39491;BME280;25175;50.140;18.990;2023-09-18T13:23:06;98189.41;;;27.02;36.23
39491;BME280;25175;50.140;18.990;2023-09-18T13:26:26;98190.69;;;26.96;35.91
39491;BME280;25175;50.140;18.990;2023-09-18T13:29:59;98169.16;;;26.96;35.78
39491;BME280;25175;50.140;18.990;2023-09-18T13:36:57;98162.47;;;27.02;36.38
39491;BME280;25175;50.140;18.990;2023-09-18T13:40:05;98171.97;;;27.00;35.99
39491;BME280;25175;50.140;18.990;2023-09-18T13:43:32;98166.47;;;26.96;36.10
39491;BME280;25175;50.140;18.990;2023-09-18T13:46:58;98170.44;;;26.90;36.07
39491;BME280;25175;50.140;18.990;2023-09-18T13:53:45;98157.00;;;26.82;36.55
39491;BME280;25175;50.140;18.990;2023-09-18T13:56:52;98144.03;;;26.84;36.77
39491;BME280;25175;50.140;18.990;2023-09-18T14:00:00;98128.31;;;26.77;35.94
39491;BME280;25175;50.140;18.990;2023-09-18T14:03:23;98129.91;;;26.78;36.18
39491;BME280;25175;50.140;18.990;2023-09-18T14:06:30;98131.50;;;26.71;36.14
39491;BME280;25175;50.140;18.990;2023-09-18T14:09:43;98124.84;;;26.68;36.57
39491;BME280;25175;50.140;18.990;2023-09-18T14:16:48;98117.91;;;26.59;36.33
39491;BME280;25175;50.140;18.990;2023-09-18T14:19:55;98108.13;;;26.54;36.10
39491;BME280;25175;50.140;18.990;2023-09-18T14:23:10;98120.16;;;26.48;36.54
39491;BME280;25175;50.140;18.990;2023-09-18T14:26:20;98112.25;;;26.43;36.24
39491;BME280;25175;50.140;18.990;2023-09-18T14:29:27;98123.34;;;26.33;36.28
39491;BME280;25175;50.140;18.990;2023-09-18T14:32:33;98121.94;;;26.27;36.56
39491;BME280;25175;50.140;18.990;2023-09-18T14:36:32;98110.84;;;26.20;36.98
39491;BME280;25175;50.140;18.990;2023-09-18T14:52:25;98092.66;;;26.00;37.51
39491;BME280;25175;50.140;18.990;2023-09-18T14:55:41;98093.63;;;25.96;37.60
39491;BME280;25175;50.140;18.990;2023-09-18T14:59:22;98095.19;;;25.88;37.31
39491;BME280;25175;50.140;18.990;2023-09-18T15:02:32;98083.63;;;25.79;37.33
39491;BME280;25175;50.140;18.990;2023-09-18T15:06:13;98087.91;;;25.72;37.87
39491;BME280;25175;50.140;18.990;2023-09-18T15:09:23;98083.44;;;25.67;37.97
39491;BME280;25175;50.140;18.990;2023-09-18T15:12:42;98076.97;;;25.60;38.07
39491;BME280;25175;50.140;18.990;2023-09-18T15:16:03;98067.16;;;25.55;38.08
39491;BME280;25175;50.140;18.990;2023-09-18T15:19:50;98066.03;;;25.56;38.34
39491;BME280;25175;50.140;18.990;2023-09-18T15:23:22;98069.69;;;25.52;38.41
39491;BME280;25175;50.140;18.990;2023-09-18T15:26:29;98060.03;;;25.51;38.63
39491;BME280;25175;50.140;18.990;2023-09-18T15:29:35;98052.44;;;25.44;38.60
39491;BME280;25175;50.140;18.990;2023-09-18T15:32:49;98066.03;;;25.48;38.49
39491;BME280;25175;50.140;18.990;2023-09-18T15:39:51;98055.59;;;25.46;39.09
39491;BME280;25175;50.140;18.990;2023-09-18T15:43:00;98051.81;;;25.47;39.41
39491;BME280;25175;50.140;18.990;2023-09-18T15:46:35;98052.59;;;25.48;39.58
39491;BME280;25175;50.140;18.990;2023-09-18T15:49:47;98049.75;;;25.44;39.51
39491;BME280;25175;50.140;18.990;2023-09-18T15:52:57;98056.56;;;25.42;39.66
39491;BME280;25175;50.140;18.990;2023-09-18T15:56:05;98044.38;;;25.36;39.73
39491;BME280;25175;50.140;18.990;2023-09-18T15:59:11;97996.88;;;24.97;40.11
39491;BME280;25175;50.140;18.990;2023-09-18T16:03:20;98048.31;;;25.21;40.09
39491;BME280;25175;50.140;18.990;2023-09-18T16:06:48;98051.44;;;25.15;39.96
39491;BME280;25175;50.140;18.990;2023-09-18T16:10:20;98055.19;;;25.05;39.95
39491;BME280;25175;50.140;18.990;2023-09-18T16:17:36;98043.47;;;24.93;40.36
39491;BME280;25175;50.140;18.990;2023-09-18T16:20:42;98044.06;;;24.90;40.39
39491;BME280;25175;50.140;18.990;2023-09-18T16:24:06;98024.78;;;24.79;40.72
39491;BME280;25175;50.140;18.990;2023-09-18T16:27:31;98036.47;;;24.83;40.88
39491;BME280;25175;50.140;18.990;2023-09-18T16:30:49;98041.50;;;24.76;40.52
39491;BME280;25175;50.140;18.990;2023-09-18T16:38:07;98033.47;;;24.54;40.53
39491;BME280;25175;50.140;18.990;2023-09-18T16:41:24;98029.66;;;24.47;40.23
39491;BME280;25175;50.140;18.990;2023-09-18T16:44:31;98009.50;;;24.27;40.31
39491;BME280;25175;50.140;18.990;2023-09-18T16:47:50;98021.53;;;24.30;40.51
39491;BME280;25175;50.140;18.990;2023-09-18T16:55:12;98012.47;;;24.17;40.75
39491;BME280;25175;50.140;18.990;2023-09-18T16:58:45;98013.72;;;24.11;40.90
39491;BME280;25175;50.140;18.990;2023-09-18T17:01:56;98019.66;;;24.08;40.96
39491;BME280;25175;50.140;18.990;2023-09-18T17:05:50;98006.41;;;24.03;41.00
39491;BME280;25175;50.140;18.990;2023-09-18T17:08:55;98003.25;;;24.01;41.24
39491;BME280;25175;50.140;18.990;2023-09-18T17:12:18;98004.94;;;23.97;41.23
39491;BME280;25175;50.140;18.990;2023-09-18T17:15:26;98004.72;;;23.94;41.33
39491;BME280;25175;50.140;18.990;2023-09-18T17:18:33;98002.34;;;23.92;41.18
39491;BME280;25175;50.140;18.990;2023-09-18T17:25:07;97943.41;;;23.48;41.61
39491;BME280;25175;50.140;18.990;2023-09-18T17:29:15;98005.09;;;23.79;41.47
39491;BME280;25175;50.140;18.990;2023-09-18T17:32:19;98006.31;;;23.73;41.38
39491;BME280;25175;50.140;18.990;2023-09-18T17:39:00;98020.75;;;23.63;41.85
39491;BME280;25175;50.140;18.990;2023-09-18T17:42:14;98013.81;;;23.62;42.46
39491;BME280;25175;50.140;18.990;2023-09-18T17:45:20;98018.06;;;23.63;43.12
39491;BME280;25175;50.140;18.990;2023-09-18T17:49:02;98019.66;;;23.64;42.80
39491;BME280;25175;50.140;18.990;2023-09-18T17:52:11;98011.13;;;23.62;43.32
39491;BME280;25175;50.140;18.990;2023-09-18T17:55:18;98020.84;;;23.58;43.27
39491;BME280;25175;50.140;18.990;2023-09-18T17:58:32;98004.91;;;23.53;43.43
39491;BME280;25175;50.140;18.990;2023-09-18T18:01:45;98017.50;;;23.53;43.64
39491;BME280;25175;50.140;18.990;2023-09-18T18:04:55;98021.88;;;23.49;43.71
39491;BME280;25175;50.140;18.990;2023-09-18T18:08:03;98031.63;;;23.45;43.49
39491;BME280;25175;50.140;18.990;2023-09-18T18:11:26;98025.88;;;23.38;43.55
39491;BME280;25175;50.140;18.990;2023-09-18T18:14:34;98030.22;;;23.34;43.70
39491;BME280;25175;50.140;18.990;2023-09-18T18:17:49;98028.66;;;23.33;44.27
39491;BME280;25175;50.140;18.990;2023-09-18T18:21:06;98034.28;;;23.31;44.47
39491;BME280;25175;50.140;18.990;2023-09-18T18:24:19;98027.34;;;23.30;44.44
39491;BME280;25175;50.140;18.990;2023-09-18T18:27:43;98038.66;;;23.27;44.67
39491;BME280;25175;50.140;18.990;2023-09-18T18:30:56;97972.59;;;22.87;44.78
39491;BME280;25175;50.140;18.990;2023-09-18T18:34:20;98029.69;;;23.10;45.11
39491;BME280;25175;50.140;18.990;2023-09-18T18:37:33;98014.03;;;22.90;45.08
39491;BME280;25175;50.140;18.990;2023-09-18T18:41:03;98003.25;;;22.81;45.77
39491;BME280;25175;50.140;18.990;2023-09-18T18:44:34;98023.16;;;22.89;46.04
39491;BME280;25175;50.140;18.990;2023-09-18T18:47:50;98030.28;;;22.80;46.36
39491;BME280;25175;50.140;18.990;2023-09-18T18:51:01;98039.28;;;22.70;46.94
39491;BME280;25175;50.140;18.990;2023-09-18T18:54:17;98023.41;;;22.60;47.27
39491;BME280;25175;50.140;18.990;2023-09-18T18:57:23;98005.19;;;22.49;46.95
39491;BME280;25175;50.140;18.990;2023-09-18T19:00:41;98013.78;;;22.32;47.70
39491;BME280;25175;50.140;18.990;2023-09-18T19:04:21;98005.44;;;22.20;47.99
39491;BME280;25175;50.140;18.990;2023-09-18T19:07:30;98002.63;;;22.12;48.24
39491;BME280;25175;50.140;18.990;2023-09-18T19:11:03;97997.44;;;22.02;48.62
39491;BME280;25175;50.140;18.990;2023-09-18T19:14:11;97988.72;;;21.96;48.75
39491;BME280;25175;50.140;18.990;2023-09-18T19:17:34;97997.31;;;21.93;48.80
39491;BME280;25175;50.140;18.990;2023-09-18T19:20:45;97993.66;;;21.89;49.12
39491;BME280;25175;50.140;18.990;2023-09-18T19:24:06;97983.56;;;21.86;49.59
39491;BME280;25175;50.140;18.990;2023-09-18T19:31:25;97973.81;;;21.77;49.48
39491;BME280;25175;50.140;18.990;2023-09-18T19:34:33;97967.28;;;21.69;49.53
39491;BME280;25175;50.140;18.990;2023-09-18T19:37:50;97966.44;;;21.55;49.96
39491;BME280;25175;50.140;18.990;2023-09-18T19:40:58;97972.66;;;21.51;49.86
39491;BME280;25175;50.140;18.990;2023-09-18T19:44:09;97961.00;;;21.42;50.29
39491;BME280;25175;50.140;18.990;2023-09-18T19:47:15;97958.94;;;21.39;50.53
39491;BME280;25175;50.140;18.990;2023-09-18T19:50:25;97965.13;;;21.34;50.64
39491;BME280;25175;50.140;18.990;2023-09-18T19:53:41;97962.81;;;21.28;50.54
39491;BME280;25175;50.140;18.990;2023-09-18T19:57:09;97971.19;;;21.21;50.63
39491;BME280;25175;50.140;18.990;2023-09-18T20:04:20;97959.84;;;21.11;51.09
39491;BME280;25175;50.140;18.990;2023-09-18T20:08:11;97940.81;;;20.99;51.00
39491;BME280;25175;50.140;18.990;2023-09-18T20:16:28;97947.38;;;20.88;51.52
39491;BME280;25175;50.140;18.990;2023-09-18T20:20:02;97947.75;;;20.76;52.36
39491;BME280;25175;50.140;18.990;2023-09-18T20:23:23;97935.16;;;20.58;52.64
39491;BME280;25175;50.140;18.990;2023-09-18T20:26:35;97939.50;;;20.54;53.09
39491;BME280;25175;50.140;18.990;2023-09-18T20:30:01;97938.53;;;20.45;53.67
39491;BME280;25175;50.140;18.990;2023-09-18T20:33:13;97941.25;;;20.40;54.01
39491;BME280;25175;50.140;18.990;2023-09-18T20:40:26;97938.19;;;20.28;54.63
39491;BME280;25175;50.140;18.990;2023-09-18T20:43:32;97935.88;;;20.22;54.58
39491;BME280;25175;50.140;18.990;2023-09-18T20:46:54;97905.22;;;19.96;54.91
39491;BME280;25175;50.140;18.990;2023-09-18T20:50:31;97924.06;;;20.04;54.97
39491;BME280;25175;50.140;18.990;2023-09-18T20:53:42;97918.78;;;19.99;54.99
39491;BME280;25175;50.140;18.990;2023-09-18T20:57:07;97913.50;;;19.94;55.09
39491;BME280;25175;50.140;18.990;2023-09-18T21:08:34;97915.31;;;19.99;54.79
39491;BME280;25175;50.140;18.990;2023-09-18T21:11:44;97885.66;;;19.82;54.73
39491;BME280;25175;50.140;18.990;2023-09-18T21:15:10;97932.66;;;19.96;54.37
39491;BME280;25175;50.140;18.990;2023-09-18T21:18:52;97919.66;;;19.90;54.72
39491;BME280;25175;50.140;18.990;2023-09-18T21:22:02;97916.75;;;19.86;55.00
39491;BME280;25175;50.140;18.990;2023-09-18T21:47:03;97916.72;;;19.63;55.38
39491;BME280;25175;50.140;18.990;2023-09-18T21:50:51;97922.06;;;19.63;55.62
39491;BME280;25175;50.140;18.990;2023-09-18T21:58:21;97905.31;;;19.57;55.33
39491;BME280;25175;50.140;18.990;2023-09-18T22:01:37;97894.69;;;19.57;55.58
39491;BME280;25175;50.140;18.990;2023-09-18T22:12:50;97893.41;;;19.50;56.06
39491;BME280;25175;50.140;18.990;2023-09-18T22:20:40;97883.56;;;19.45;56.12
39491;BME280;25175;50.140;18.990;2023-09-18T22:27:57;97888.44;;;19.38;56.16
39491;BME280;25175;50.140;18.990;2023-09-18T22:31:53;97882.56;;;19.36;56.09
39491;BME280;25175;50.140;18.990;2023-09-18T22:35:17;97880.50;;;19.33;56.15
39491;BME280;25175;50.140;18.990;2023-09-18T22:38:32;97897.00;;;19.30;56.05
39491;BME280;25175;50.140;18.990;2023-09-18T22:57:51;97852.53;;;19.02;56.65
39491;BME280;25175;50.140;18.990;2023-09-18T23:05:41;97861.00;;;19.04;56.64
39491;BME280;25175;50.140;18.990;2023-09-18T23:13:15;97859.44;;;19.03;56.44
39491;BME280;25175;50.140;18.990;2023-09-18T23:16:46;97843.75;;;19.02;56.58
39491;BME280;25175;50.140;18.990;2023-09-18T23:20:27;97853.09;;;18.99;56.16
39491;BME280;25175;50.140;18.990;2023-09-18T23:23:34;97852.06;;;18.95;56.32
39491;BME280;25175;50.140;18.990;2023-09-18T23:31:04;97838.56;;;18.87;56.57
39491;BME280;25175;50.140;18.990;2023-09-18T23:34:13;97837.75;;;18.86;56.30
39491;BME280;25175;50.140;18.990;2023-09-18T23:38:37;97846.28;;;18.83;56.31
39491;BME280;25175;50.140;18.990;2023-09-18T23:41:47;97836.69;;;18.82;56.46
39491;BME280;25175;50.140;18.990;2023-09-18T23:45:12;97821.97;;;18.56;56.51
39491;BME280;25175;50.140;18.990;2023-09-18T23:49:06;97835.94;;;18.82;56.41
39491;BME280;25175;50.140;18.990;2023-09-18T23:57:09;97824.25;;;18.78;56.30
